Time;durP1;ratioP1;P1;durP2;ratioP2;P2;SDS_P1;SDS_P2;PMS_P1;PMS_P2;Temp;Humidity;BMP_temperature;BMP_pressure;BME280_temperature;BME280_humidity;BME280_pressure;Samples;Min_cycle;Max_cycle;Signal;HPM_P1;HPM_P2
2023/09/11 00:01:38;;;;;;;19.60;17.60;;;21.70;26.50;;;;;;5007087;28;20992;-65
2023/09/11 00:04:07;;;;;;;19.30;17.50;;;21.60;26.70;;;;;;5011795;28;20527;-67
2023/09/11 00:06:34;;;;;;;21.40;18.80;;;21.60;26.90;;;;;;5006669;28;20471;-68
2023/09/11 00:09:01;;;;;;;19.97;17.97;;;21.60;27.00;;;;;;5009191;28;20486;-67
2023/09/11 00:11:29;;;;;;;18.80;16.80;;;21.60;27.00;;;;;;5006966;28;21012;-67
2023/09/11 00:13:55;;;;;;;20.17;18.00;;;21.60;27.20;;;;;;5001134;28;20487;-67
2023/09/11 00:16:22;;;;;;;21.10;19.00;;;21.50;27.10;;;;;;5005614;28;20467;-67
2023/09/11 00:18:49;;;;;;;20.43;18.27;;;21.50;27.20;;;;;;5006994;28;20839;-67
2023/09/11 00:21:16;;;;;;;19.57;17.60;;;21.50;27.30;;;;;;5004706;28;20464;-67
2023/09/11 00:23:42;;;;;;;19.60;17.80;;;21.40;27.20;;;;;;5005524;28;21066;-67
2023/09/11 00:26:09;;;;;;;20.37;18.27;;;21.40;27.30;;;;;;5007597;28;20464;-67
2023/09/11 00:28:37;;;;;;;19.60;17.80;;;21.40;27.50;;;;;;5014396;28;20474;-67
2023/09/11 00:31:04;;;;;;;19.70;17.90;;;21.40;27.60;;;;;;5010105;28;20479;-67
2023/09/11 00:33:30;;;;;;;20.97;17.90;;;21.40;27.70;;;;;;5005154;28;20991;-66
2023/09/11 00:35:57;;;;;;;20.10;18.00;;;21.40;27.80;;;;;;5007649;28;20468;-66
2023/09/11 00:38:24;;;;;;;20.23;18.43;;;21.40;27.70;;;;;;5006177;28;20463;-66
2023/09/11 00:40:51;;;;;;;19.80;17.80;;;21.40;27.80;;;;;;5011518;28;20813;-66
2023/09/11 00:43:18;;;;;;;21.07;18.83;;;21.30;27.70;;;;;;5004959;28;20558;-66
2023/09/11 00:45:50;;;;;;;18.10;16.20;;;21.30;27.70;;;;;;5006462;28;20510;-66
2023/09/11 00:48:18;;;;;;;19.27;17.37;;;21.30;27.60;;;;;;5006240;28;20816;-66
2023/09/11 00:50:45;;;;;;;18.27;16.47;;;21.30;27.40;;;;;;5006367;28;20488;-67
2023/09/11 00:53:13;;;;;;;18.80;17.00;;;21.30;27.60;;;;;;5005759;28;20487;-67
2023/09/11 00:55:40;;;;;;;19.33;16.93;;;21.30;27.70;;;;;;5009510;28;20525;-67
2023/09/11 00:58:07;;;;;;;20.83;18.60;;;21.20;27.70;;;;;;5004922;28;21178;-67
2023/09/11 01:00:34;;;;;;;19.47;17.60;;;21.20;27.40;;;;;;5005628;28;20463;-67
2023/09/11 01:03:02;;;;;;;19.63;17.57;;;21.20;27.50;;;;;;5006672;28;20463;-67
2023/09/11 01:05:30;;;;;;;19.60;17.77;;;21.20;27.60;;;;;;5006087;28;20464;-67
2023/09/11 01:07:57;;;;;;;21.23;18.70;;;21.10;27.70;;;;;;5009124;28;20476;-67
2023/09/11 01:10:24;;;;;;;19.60;17.60;;;21.10;27.50;;;;;;5005848;28;20471;-67
2023/09/11 01:12:51;;;;;;;20.20;18.23;;;21.10;27.50;;;;;;5009606;28;20837;-67
2023/09/11 01:15:18;;;;;;;20.03;17.90;;;21.00;27.70;;;;;;5009555;28;20505;-67
2023/09/11 01:17:51;;;;;;;19.17;17.23;;;21.00;27.50;;;;;;5009368;28;20452;-67
2023/09/11 01:20:37;;;;;;;19.43;17.30;;;21.00;27.60;;;;;;5009354;28;21953;-67
2023/09/11 01:23:29;;;;;;;22.50;18.17;;;20.90;27.80;;;;;;5007185;28;20475;-67
2023/09/11 01:26:16;;;;;;;18.90;17.10;;;20.90;27.80;;;;;;5010215;28;20834;-67
2023/09/11 01:31:41;;;;;;;19.60;17.60;;;20.90;27.80;;;;;;5080914;27;21182;-67
2023/09/11 01:34:09;;;;;;;21.47;18.17;;;20.80;27.70;;;;;;5059626;28;20489;-66
2023/09/11 01:36:35;;;;;;;19.67;17.80;;;20.70;27.70;;;;;;5064027;28;20492;-66
2023/09/11 01:39:03;;;;;;;19.97;17.80;;;20.70;27.90;;;;;;5061052;28;20461;-66
2023/09/11 01:41:34;;;;;;;19.67;17.60;;;20.60;27.60;;;;;;5060429;28;20461;-66
2023/09/11 01:44:05;;;;;;;18.27;16.47;;;20.50;27.50;;;;;;5061475;28;20485;-66
2023/09/11 01:46:33;;;;;;;20.07;17.20;;;20.50;27.60;;;;;;5062898;28;20466;-67
2023/09/11 01:49:02;;;;;;;20.43;18.43;;;20.40;27.70;;;;;;5063291;28;20521;-66
2023/09/11 01:51:31;;;;;;;19.60;17.73;;;20.40;27.90;;;;;;5057346;28;20473;-66
2023/09/11 01:53:59;;;;;;;18.10;15.87;;;20.50;28.20;;;;;;5060573;28;20477;-66
2023/09/11 01:56:26;;;;;;;22.13;17.80;;;20.50;28.50;;;;;;5061462;28;20461;-66
2023/09/11 01:58:56;;;;;;;20.17;18.13;;;20.50;28.70;;;;;;5062428;28;20469;-66
2023/09/11 02:01:23;;;;;;;20.47;18.57;;;20.40;29.10;;;;;;5058629;28;20481;-67
2023/09/11 02:03:50;;;;;;;19.07;17.10;;;20.40;29.30;;;;;;5059978;28;20492;-66
2023/09/11 02:06:18;;;;;;;20.03;18.07;;;20.40;29.50;;;;;;5062206;28;20969;-66
2023/09/11 02:08:44;;;;;;;19.80;17.90;;;20.40;30.10;;;;;;5056812;28;20469;-66
2023/09/11 02:11:11;;;;;;;21.00;19.00;;;20.40;30.10;;;;;;5063120;28;20992;-66
2023/09/11 02:13:39;;;;;;;20.90;18.67;;;20.40;30.10;;;;;;5061489;28;20489;-67
2023/09/11 02:16:05;;;;;;;23.93;19.37;;;20.40;30.30;;;;;;5062968;28;20477;-66
2023/09/11 02:18:32;;;;;;;21.30;19.30;;;20.40;30.20;;;;;;5061687;28;20468;-66
2023/09/11 02:20:59;;;;;;;22.43;20.13;;;20.30;30.30;;;;;;5062983;28;21125;-66
2023/09/11 02:23:27;;;;;;;22.97;20.63;;;20.30;30.20;;;;;;5062276;28;20488;-66
2023/09/11 02:25:53;;;;;;;22.60;20.30;;;20.30;30.60;;;;;;5061226;28;20465;-66
2023/09/11 02:28:20;;;;;;;21.63;19.53;;;20.30;30.40;;;;;;5064337;28;20457;-66
2023/09/11 02:30:47;;;;;;;22.80;19.37;;;20.30;30.70;;;;;;5059121;28;20496;-66
2023/09/11 02:33:13;;;;;;;20.87;18.80;;;20.30;30.70;;;;;;5058619;28;20479;-66
2023/09/11 02:35:40;;;;;;;21.03;19.00;;;20.30;30.40;;;;;;5057735;28;20462;-66
2023/09/11 02:38:07;;;;;;;21.47;19.37;;;20.30;30.20;;;;;;5062463;28;20469;-66
2023/09/11 02:40:37;;;;;;;20.77;18.67;;;20.30;30.40;;;;;;5058524;28;20830;-66
2023/09/11 02:43:04;;;;;;;21.10;19.00;;;20.30;30.70;;;;;;5042732;28;20462;-66
2023/09/11 02:45:31;;;;;;;20.13;18.00;;;20.20;30.50;;;;;;5047647;28;20955;-66
2023/09/11 02:47:58;;;;;;;20.10;18.30;;;20.20;30.60;;;;;;5045363;28;20471;-66
2023/09/11 02:50:24;;;;;;;19.50;17.57;;;20.20;30.30;;;;;;5046510;28;20486;-66
2023/09/11 02:52:51;;;;;;;21.90;19.77;;;20.20;30.20;;;;;;5049209;28;20481;-66
2023/09/11 02:55:18;;;;;;;21.30;19.03;;;20.20;30.00;;;;;;5045493;28;20492;-66
2023/09/11 02:57:46;;;;;;;19.67;17.67;;;20.10;30.00;;;;;;5046125;28;20840;-66
2023/09/11 03:00:14;;;;;;;20.03;17.20;;;20.10;29.80;;;;;;5045538;28;20458;-66
2023/09/11 03:02:40;;;;;;;20.50;18.13;;;20.00;29.50;;;;;;5045396;28;20528;-66
2023/09/11 03:05:08;;;;;;;19.17;17.27;;;20.00;29.50;;;;;;5043018;28;20586;-67
2023/09/11 03:07:34;;;;;;;19.57;16.77;;;20.00;29.70;;;;;;5046627;28;20475;-66
2023/09/11 03:10:03;;;;;;;20.73;17.60;;;20.00;29.60;;;;;;5047824;28;20492;-66
2023/09/11 03:12:29;;;;;;;19.03;16.77;;;19.90;29.50;;;;;;5049526;28;20500;-66
2023/09/11 03:15:03;;;;;;;20.30;18.30;;;19.90;29.50;;;;;;5048974;28;20514;-67
2023/09/11 03:17:30;;;;;;;18.57;16.50;;;19.80;29.60;;;;;;5046629;28;20823;-66
2023/09/11 03:19:56;;;;;;;20.43;17.10;;;19.80;29.50;;;;;;5053876;28;20474;-67
2023/09/11 03:22:23;;;;;;;18.83;16.73;;;19.70;29.70;;;;;;5049135;28;20489;-67
2023/09/11 03:24:50;;;;;;;18.53;16.70;;;19.70;29.50;;;;;;5049131;28;21320;-66
2023/09/11 03:27:17;;;;;;;22.20;16.83;;;19.70;29.50;;;;;;5054406;28;20465;-67
2023/09/11 03:29:43;;;;;;;20.40;17.80;;;19.70;29.60;;;;;;5050905;28;20481;-66
2023/09/11 03:32:11;;;;;;;20.00;17.90;;;19.70;29.60;;;;;;5047381;28;20489;-66
2023/09/11 03:34:38;;;;;;;21.37;18.90;;;19.60;29.50;;;;;;5047243;28;20994;-66
2023/09/11 03:37:05;;;;;;;21.80;18.00;;;19.60;29.60;;;;;;5049124;28;20470;-66
2023/09/11 03:39:31;;;;;;;20.17;18.17;;;19.60;30.00;;;;;;5048124;28;20474;-66
2023/09/11 03:41:58;;;;;;;18.93;17.10;;;19.50;29.90;;;;;;5049748;28;20487;-66
2023/09/11 03:44:25;;;;;;;19.77;17.77;;;19.50;30.00;;;;;;5045161;28;20488;-66
2023/09/11 03:46:52;;;;;;;23.63;17.80;;;19.60;30.20;;;;;;5049531;28;20977;-66
2023/09/11 03:49:20;;;;;;;22.10;18.80;;;19.50;30.20;;;;;;5047086;28;20469;-66
2023/09/11 03:51:46;;;;;;;21.63;19.40;;;19.50;30.60;;;;;;5046686;28;20478;-66
2023/09/11 03:54:13;;;;;;;21.47;19.27;;;19.50;30.40;;;;;;5044091;28;20561;-66
2023/09/11 03:56:40;;;;;;;21.10;18.17;;;19.50;30.40;;;;;;5046625;28;20999;-66
2023/09/11 03:59:07;;;;;;;23.03;19.07;;;19.50;30.60;;;;;;5050414;28;20469;-66
2023/09/11 04:01:33;;;;;;;21.63;19.13;;;19.40;30.40;;;;;;5034294;28;20501;-66
2023/09/11 04:04:00;;;;;;;22.03;19.73;;;19.40;30.40;;;;;;5041849;28;21273;-67
2023/09/11 04:06:28;;;;;;;22.10;18.60;;;19.40;30.80;;;;;;5040659;28;20466;-65
2023/09/11 04:08:55;;;;;;;21.33;18.80;;;19.40;30.80;;;;;;5042091;28;20471;-66
2023/09/11 04:11:23;;;;;;;22.23;19.90;;;19.40;30.80;;;;;;5041775;28;20486;-63
2023/09/11 04:13:49;;;;;;;20.53;18.33;;;19.40;30.70;;;;;;5043996;28;20567;-64
2023/09/11 04:16:16;;;;;;;20.83;18.67;;;19.30;30.70;;;;;;5042668;28;21036;-64
2023/09/11 04:18:43;;;;;;;20.40;18.37;;;19.30;30.60;;;;;;5044879;28;20469;-64
2023/09/11 04:21:10;;;;;;;22.37;19.97;;;19.30;30.80;;;;;;5044164;28;20466;-63
2023/09/11 04:23:38;;;;;;;21.33;19.20;;;19.30;30.90;;;;;;5044264;28;20887;-64
2023/09/11 04:26:06;;;;;;;21.47;19.30;;;19.20;31.10;;;;;;5044312;28;20465;-64
2023/09/11 04:28:33;;;;;;;21.73;19.53;;;19.20;31.10;;;;;;5044976;28;20469;-63
2023/09/11 04:31:00;;;;;;;21.13;18.43;;;19.20;31.20;;;;;;5044824;28;20474;-64
2023/09/11 04:33:27;;;;;;;20.67;18.57;;;19.20;31.10;;;;;;5040817;28;20474;-64
2023/09/11 04:35:54;;;;;;;22.20;19.87;;;19.20;31.70;;;;;;5046580;28;20455;-64
2023/09/11 04:38:20;;;;;;;21.10;18.90;;;19.10;31.00;;;;;;5046334;28;20488;-64
2023/09/11 04:40:49;;;;;;;19.97;17.87;;;19.20;31.70;;;;;;5042789;28;20474;-64
2023/09/11 04:43:15;;;;;;;20.60;18.40;;;19.10;31.00;;;;;;5041576;28;20986;-65
2023/09/11 04:45:42;;;;;;;19.70;17.70;;;19.10;30.90;;;;;;5042259;28;20473;-65
2023/09/11 04:48:09;;;;;;;19.03;17.10;;;19.10;30.70;;;;;;5042820;28;20466;-65
2023/09/11 04:50:36;;;;;;;19.73;17.80;;;19.10;30.70;;;;;;5042077;28;20501;-65
2023/09/11 04:53:02;;;;;;;19.03;17.23;;;19.10;30.70;;;;;;5045929;28;20474;-66
2023/09/11 04:55:29;;;;;;;20.17;18.10;;;19.10;30.50;;;;;;5043785;28;20849;-66
2023/09/11 04:57:57;;;;;;;19.63;17.63;;;19.20;30.30;;;;;;5052500;23;20438;-67
2023/09/11 05:00:26;;;;;;;20.90;18.30;;;19.10;30.40;;;;;;5001821;28;20474;-68
2023/09/11 05:02:52;;;;;;;25.80;19.20;;;19.10;30.50;;;;;;5007431;28;20472;-67
2023/09/11 05:05:19;;;;;;;22.37;18.90;;;19.10;30.70;;;;;;5018891;28;20564;-68
2023/09/11 05:07:46;;;;;;;21.13;19.03;;;19.10;30.80;;;;;;5020276;28;20468;-67
2023/09/11 05:10:14;;;;;;;20.67;18.60;;;19.20;30.90;;;;;;5019918;28;20493;-68
2023/09/11 05:12:41;;;;;;;22.23;19.97;;;19.20;31.00;;;;;;5020077;28;20684;-67
2023/09/11 05:15:10;;;;;;;21.27;19.03;;;19.30;30.60;;;;;;5021005;28;20491;-68
2023/09/11 05:17:37;;;;;;;20.43;18.03;;;19.50;30.40;;;;;;5020927;28;20467;-67
2023/09/11 05:20:06;;;;;;;20.60;18.40;;;19.60;30.10;;;;;;5020213;28;20511;-67
2023/09/11 05:22:33;;;;;;;19.00;16.93;;;19.80;29.80;;;;;;5028594;28;20526;-67
2023/09/11 05:25:00;;;;;;;21.77;18.23;;;20.10;29.00;;;;;;5023534;28;20518;-67
2023/09/11 05:27:28;;;;;;;20.27;18.10;;;20.50;28.10;;;;;;5020788;28;20494;-67
2023/09/11 05:29:55;;;;;;;21.70;17.90;;;20.90;26.80;;;;;;5022781;28;20459;-67
2023/09/11 05:32:23;;;;;;;22.00;17.93;;;21.40;25.30;;;;;;5022236;28;20512;-67
2023/09/11 05:34:50;;;;;;;19.10;17.27;;;21.80;24.30;;;;;;5021185;28;20486;-67
2023/09/11 05:37:16;;;;;;;19.17;17.07;;;22.10;23.40;;;;;;5024896;28;20470;-67
2023/09/11 05:39:43;;;;;;;18.67;16.73;;;22.40;22.40;;;;;;5024930;28;21229;-67
2023/09/11 05:42:10;;;;;;;19.30;17.30;;;22.70;21.90;;;;;;5025487;28;20470;-67
2023/09/11 05:44:37;;;;;;;18.50;16.60;;;22.90;21.00;;;;;;5024826;28;20493;-67
2023/09/11 05:47:06;;;;;;;19.83;16.57;;;23.10;20.40;;;;;;5022882;28;20467;-67
2023/09/11 05:49:34;;;;;;;19.30;16.73;;;23.30;20.00;;;;;;5022684;28;20541;-68
2023/09/11 05:52:00;;;;;;;19.50;17.60;;;23.40;19.70;;;;;;5024580;28;20490;-67
2023/09/11 05:54:27;;;;;;;18.40;16.57;;;23.50;19.60;;;;;;5022692;28;20893;-66
2023/09/11 05:56:54;;;;;;;18.77;16.97;;;23.70;19.10;;;;;;5024954;28;20476;-66
2023/09/11 05:59:20;;;;;;;19.53;17.43;;;23.80;17.50;;;;;;5023942;28;20466;-67
2023/09/11 06:01:47;;;;;;;17.77;16.07;;;23.90;17.40;;;;;;5013202;28;20486;-66
2023/09/11 06:04:14;;;;;;;16.70;15.13;;;24.10;17.00;;;;;;5020421;28;20483;-66
2023/09/11 06:06:42;;;;;;;18.10;16.20;;;24.40;16.30;;;;;;5024034;28;20474;-66
2023/09/11 06:09:09;;;;;;;18.90;16.90;;;24.80;15.30;;;;;;5020738;28;20847;-66
2023/09/11 06:11:36;;;;;;;19.47;17.57;;;25.20;14.60;;;;;;5022659;28;20557;-66
2023/09/11 06:14:03;;;;;;;20.10;16.50;;;25.40;14.30;;;;;;5024035;28;20486;-67
2023/09/11 06:16:30;;;;;;;18.90;16.90;;;25.70;13.60;;;;;;5025652;28;20462;-68
2023/09/11 06:18:57;;;;;;;16.80;15.10;;;26.10;13.00;;;;;;5027247;28;20478;-67
2023/09/11 06:21:24;;;;;;;19.30;16.43;;;26.70;11.50;;;;;;5030133;28;20481;-66
2023/09/11 06:23:52;;;;;;;18.90;17.00;;;27.80;9.60;;;;;;5024650;28;20487;-67
2023/09/11 06:26:19;;;;;;;17.80;16.20;;;28.90;7.10;;;;;;5024868;28;20469;-67
2023/09/11 06:28:46;;;;;;;17.97;16.17;;;29.90;5.00;;;;;;5024024;28;20474;-66
2023/09/11 06:31:12;;;;;;;17.13;14.53;;;30.90;2.80;;;;;;5027669;28;20474;-67
2023/09/11 06:33:39;;;;;;;16.33;14.73;;;32.00;1.00;;;;;;5027439;28;20501;-67
2023/09/11 06:36:06;;;;;;;17.37;15.33;;;33.10;1.00;;;;;;5027438;28;20467;-67
2023/09/11 06:38:33;;;;;;;15.13;13.73;;;34.10;1.00;;;;;;5030226;28;20471;-67
2023/09/11 06:41:01;;;;;;;16.30;14.60;;;35.10;1.00;;;;;;5029400;28;20465;-67
2023/09/11 06:43:28;;;;;;;16.83;15.23;;;36.00;1.00;;;;;;5025762;28;20521;-67
2023/09/11 06:45:55;;;;;;;16.47;14.80;;;37.00;1.00;;;;;;5036404;28;20464;-68
2023/09/11 06:48:22;;;;;;;14.70;13.30;;;38.10;1.00;;;;;;5040182;28;20459;-67
2023/09/11 06:50:49;;;;;;;15.17;13.67;;;39.00;1.00;;;;;;5026680;28;20489;-68
2023/09/11 06:53:15;;;;;;;14.73;13.07;;;39.90;1.00;;;;;;5029224;28;20487;-67
2023/09/11 06:55:45;;;;;;;15.03;13.43;;;40.80;1.00;;;;;;5026539;28;20459;-67
2023/09/11 06:58:13;;;;;;;12.90;11.60;;;41.60;1.00;;;;;;5026093;28;20467;-68
2023/09/11 07:00:40;;;;;;;12.80;11.70;;;42.40;1.00;;;;;;5026812;28;20505;-68
2023/09/11 07:03:07;;;;;;;13.23;12.03;;;43.20;1.00;;;;;;5028580;28;20899;-67
2023/09/11 07:05:36;;;;;;;13.80;12.47;;;43.80;1.00;;;;;;5020548;28;20467;-68
2023/09/11 07:08:03;;;;;;;12.70;11.40;;;44.50;1.00;;;;;;5028229;28;20624;-68
2023/09/11 07:10:30;;;;;;;11.87;10.77;;;45.20;1.00;;;;;;5030958;28;20463;-70
2023/09/11 07:12:57;;;;;;;13.43;9.57;;;45.80;1.00;;;;;;5021822;28;20811;-68
2023/09/11 07:15:25;;;;;;;13.73;11.07;;;46.40;1.00;;;;;;5030192;28;20475;-67
2023/09/11 07:17:53;;;;;;;12.67;11.37;;;46.90;1.00;;;;;;5037850;28;20471;-69
2023/09/11 07:20:21;;;;;;;14.00;11.47;;;47.30;1.00;;;;;;5024116;28;20528;-68
2023/09/11 07:22:48;;;;;;;10.90;9.93;;;47.80;1.00;;;;;;5023058;28;20462;-69
2023/09/11 07:25:17;;;;;;;10.80;9.80;;;48.20;1.00;;;;;;5023830;28;20473;-69
2023/09/11 07:27:43;;;;;;;11.30;10.30;;;48.80;1.00;;;;;;5026089;28;20473;-67
2023/09/11 07:30:11;;;;;;;9.90;8.97;;;49.30;1.00;;;;;;5025734;28;20490;-66
2023/09/11 07:32:39;;;;;;;11.13;9.90;;;49.80;1.00;;;;;;5024591;28;20490;-67
2023/09/11 07:35:07;;;;;;;10.50;9.50;;;50.20;1.00;;;;;;5024819;28;20487;-67
2023/09/11 07:37:33;;;;;;;12.57;9.57;;;50.50;1.00;;;;;;5024591;28;20778;-66
2023/09/11 07:40:00;;;;;;;10.33;9.33;;;50.80;1.00;;;;;;5019855;28;20488;-68
2023/09/11 07:42:27;;;;;;;11.00;9.90;;;51.00;1.00;;;;;;5026893;28;20524;-68
2023/09/11 07:44:54;;;;;;;9.50;8.67;;;51.20;1.00;;;;;;5026489;28;20497;-68
2023/09/11 07:47:21;;;;;;;10.57;8.50;;;51.50;1.00;;;;;;5025688;28;20481;-68
2023/09/11 07:49:49;;;;;;;10.67;8.07;;;51.90;1.00;;;;;;5021643;28;20485;-69
2023/09/11 07:52:15;;;;;;;9.63;8.70;;;52.20;1.00;;;;;;5021140;28;20479;-69
2023/09/11 07:54:43;;;;;;;9.60;8.50;;;52.60;1.00;;;;;;5021600;28;20486;-69
2023/09/11 07:57:09;;;;;;;10.30;9.20;;;53.00;1.00;;;;;;5025199;28;20478;-68
2023/09/11 07:59:36;;;;;;;10.50;8.43;;;53.30;1.00;;;;;;5027630;28;20478;-69
2023/09/11 08:02:03;;;;;;;9.67;7.63;;;53.50;1.00;;;;;;5022619;28;20478;-68
2023/09/11 08:04:30;;;;;;;8.97;8.17;;;53.80;1.00;;;;;;5023267;28;20483;-68
2023/09/11 08:06:58;;;;;;;10.60;7.90;;;54.20;1.00;;;;;;5021174;28;20845;-67
2023/09/11 08:09:24;;;;;;;9.20;8.30;;;54.40;1.00;;;;;;5021327;28;20474;-67
2023/09/11 08:11:51;;;;;;;9.53;7.63;;;54.60;1.00;;;;;;5021738;28;21005;-66
2023/09/11 08:14:19;;;;;;;8.77;7.97;;;54.80;1.00;;;;;;5023878;28;21016;-67
2023/09/11 08:16:46;;;;;;;10.50;7.93;;;55.00;1.00;;;;;;5022564;28;20458;-67
2023/09/11 08:19:12;;;;;;;8.70;7.50;;;55.10;1.00;;;;;;5025651;28;20203;-70
2023/09/11 08:21:40;;;;;;;10.97;7.47;;;55.30;1.00;;;;;;5020469;28;20207;-69
2023/09/11 08:24:08;;;;;;;9.17;7.60;;;55.40;1.00;;;;;;5026244;28;20315;-69
2023/09/11 08:26:34;;;;;;;10.67;6.90;;;55.40;1.00;;;;;;5022779;28;20200;-68
2023/09/11 08:29:02;;;;;;;8.80;8.10;;;55.50;1.00;;;;;;5020686;28;20200;-69
2023/09/11 08:31:29;;;;;;;9.67;7.50;;;55.80;1.00;;;;;;5023030;28;20220;-68
2023/09/11 08:33:56;;;;;;;8.48;7.53;;;55.70;1.00;;;;;;5025595;28;20223;-67
2023/09/11 08:36:23;;;;;;;10.10;7.45;;;55.80;1.00;;;;;;5026018;28;20652;-67
2023/09/11 08:38:50;;;;;;;8.98;8.05;;;55.90;1.00;;;;;;5024037;28;20205;-67
2023/09/11 08:41:19;;;;;;;8.18;7.47;;;55.90;1.00;;;;;;5023612;28;20219;-68
2023/09/11 08:43:46;;;;;;;9.27;6.75;;;56.20;1.00;;;;;;5025801;28;20784;-67
2023/09/11 08:46:15;;;;;;;7.68;6.97;;;56.40;1.00;;;;;;5025242;28;20227;-66
2023/09/11 08:48:44;;;;;;;7.47;6.68;;;56.60;1.00;;;;;;5022468;28;20695;-67
2023/09/11 08:51:15;;;;;;;8.18;7.05;;;56.90;1.00;;;;;;5017294;28;20294;-67
2023/09/11 08:53:46;;;;;;;8.10;7.30;;;57.30;1.00;;;;;;5018481;28;20319;-67
2023/09/11 08:56:13;;;;;;;9.73;7.13;;;57.40;1.00;;;;;;5025429;28;20731;-66
2023/09/11 08:58:42;;;;;;;9.13;6.80;;;57.50;1.00;;;;;;5023758;28;20214;-67
2023/09/11 09:01:10;;;;;;;8.10;6.88;;;57.80;1.00;;;;;;5020609;28;20230;-66
2023/09/11 09:03:39;;;;;;;10.90;7.22;;;57.60;1.00;;;;;;5020494;28;20746;-67
2023/09/11 09:06:06;;;;;;;7.90;7.05;;;57.30;1.00;;;;;;5024642;28;20204;-66
2023/09/11 09:08:34;;;;;;;9.27;6.80;;;56.40;1.00;;;;;;5023929;28;20215;-67
2023/09/11 09:11:02;;;;;;;8.02;6.90;;;56.50;1.00;;;;;;5023577;28;20204;-67
2023/09/11 09:13:32;;;;;;;9.20;6.60;;;56.90;1.00;;;;;;5024806;28;20665;-66
2023/09/11 09:16:00;;;;;;;9.77;7.30;;;57.20;1.00;;;;;;5025595;28;20212;-69
2023/09/11 09:18:27;;;;;;;7.18;6.47;;;57.50;1.00;;;;;;5025711;28;20561;-70
2023/09/11 09:20:55;;;;;;;10.50;7.47;;;57.80;1.00;;;;;;5022013;28;20204;-69
2023/09/11 09:23:32;;;;;;;7.78;6.97;;;58.00;1.00;;;;;;5021187;28;20290;-68
2023/09/11 09:26:04;;;;;;;13.35;7.60;;;58.10;1.00;;;;;;5025410;28;20998;-69
2023/09/11 09:28:32;;;;;;;8.35;6.85;;;58.30;1.00;;;;;;5021025;28;20235;-68
2023/09/11 09:31:01;;;;;;;7.75;6.57;;;58.40;1.00;;;;;;5022221;28;20247;-67
2023/09/11 09:33:28;;;;;;;7.70;6.82;;;58.60;1.00;;;;;;5022084;28;20254;-67
2023/09/11 09:35:56;;;;;;;8.25;6.22;;;58.50;1.00;;;;;;5024436;28;20200;-67
2023/09/11 09:38:23;;;;;;;8.63;6.68;;;58.70;1.00;;;;;;5020682;28;20207;-67
2023/09/11 09:40:51;;;;;;;8.00;6.30;;;58.70;1.00;;;;;;5018802;28;20204;-66
2023/09/11 09:43:19;;;;;;;6.88;5.95;;;59.10;1.00;;;;;;5022582;28;20219;-67
2023/09/11 09:45:46;;;;;;;9.88;6.88;;;59.30;1.00;;;;;;5019312;28;20208;-68
2023/09/11 09:48:15;;;;;;;11.65;6.10;;;59.30;1.00;;;;;;5021347;28;20695;-67
2023/09/11 09:50:57;;;;;;;8.93;5.47;;;59.40;1.00;;;;;;5020771;28;20546;-70
2023/09/11 09:53:26;;;;;;;8.27;6.43;;;59.40;1.00;;;;;;5027324;28;20254;-68
2023/09/11 09:55:55;;;;;;;9.77;5.72;;;59.40;1.00;;;;;;5026781;28;20215;-68
2023/09/11 09:58:27;;;;;;;6.93;6.05;;;59.40;1.00;;;;;;5024421;28;20244;-67
2023/09/11 10:00:59;;;;;;;7.43;5.90;;;59.20;1.00;;;;;;5021015;28;20273;-65
2023/09/11 10:03:28;;;;;;;7.13;5.78;;;59.10;1.00;;;;;;5023766;28;20237;-66
2023/09/11 10:05:55;;;;;;;8.30;6.30;;;59.00;1.00;;;;;;5021600;28;20212;-66
2023/09/11 10:08:22;;;;;;;7.47;6.63;;;58.80;1.00;;;;;;5025536;28;20204;-65
2023/09/11 10:10:49;;;;;;;8.38;5.90;;;58.60;1.00;;;;;;5026806;28;20200;-66
2023/09/11 10:13:16;;;;;;;6.63;5.70;;;58.30;1.00;;;;;;5024934;28;20220;-65
2023/09/11 10:15:44;;;;;;;12.15;7.15;;;57.80;1.00;;;;;;5026709;28;20199;-66
2023/09/11 10:18:12;;;;;;;7.82;6.55;;;57.40;1.00;;;;;;5020666;28;20212;-66
2023/09/11 10:20:41;;;;;;;8.07;5.93;;;56.90;1.00;;;;;;5025894;28;20211;-67
2023/09/11 10:23:09;;;;;;;7.40;6.63;;;56.30;1.00;;;;;;5024341;28;20285;-66
2023/09/11 10:25:38;;;;;;;7.73;6.50;;;56.10;1.00;;;;;;5029028;28;20208;-66
2023/09/11 10:28:08;;;;;;;6.80;5.63;;;55.90;1.00;;;;;;5027232;28;20657;-66
2023/09/11 10:30:42;;;;;;;9.13;6.50;;;55.60;1.00;;;;;;5027354;28;20958;-67
2023/09/11 10:33:15;;;;;;;7.70;6.30;;;55.20;1.00;;;;;;5019318;28;20489;-66
2023/09/11 10:35:46;;;;;;;7.33;6.63;;;54.70;1.00;;;;;;5025514;28;20845;-66
2023/09/11 10:38:16;;;;;;;8.63;6.10;;;54.20;1.00;;;;;;5024549;28;20474;-66
2023/09/11 10:40:44;;;;;;;7.33;5.43;;;53.60;1.00;;;;;;5026409;28;20540;-66
2023/09/11 10:43:12;;;;;;;7.37;6.33;;;53.00;1.00;;;;;;5027787;28;20888;-67
2023/09/11 10:45:39;;;;;;;9.00;6.90;;;52.40;1.00;;;;;;5028191;28;20473;-68
2023/09/11 10:48:06;;;;;;;7.00;6.20;;;51.70;1.00;;;;;;5022889;28;20462;-68
2023/09/11 10:50:37;;;;;;;9.10;5.70;;;51.00;1.00;;;;;;5021350;28;20608;-68
2023/09/11 10:53:07;;;;;;;7.93;5.13;;;50.30;1.00;;;;;;5025334;28;20482;-67
2023/09/11 10:55:34;;;;;;;9.23;5.97;;;49.70;1.00;;;;;;5026130;28;20469;-67
2023/09/11 10:58:04;;;;;;;8.10;5.80;;;49.20;1.00;;;;;;5028518;28;20473;-66
2023/09/11 11:00:31;;;;;;;8.67;6.40;;;48.50;1.00;;;;;;5025942;28;20494;-66
2023/09/11 11:02:59;;;;;;;7.90;6.07;;;47.70;1.00;;;;;;5026106;28;20808;-67
2023/09/11 11:05:27;;;;;;;9.70;5.90;;;46.70;1.00;;;;;;5022223;28;20974;-66
2023/09/11 11:07:54;;;;;;;8.90;5.60;;;46.00;1.00;;;;;;5026394;28;20471;-66
2023/09/11 11:10:23;;;;;;;6.47;4.83;;;45.20;1.00;;;;;;5027421;28;20470;-65
2023/09/11 11:12:49;;;;;;;7.70;5.60;;;44.50;1.00;;;;;;5025875;28;20494;-67
2023/09/11 11:15:35;;;;;;;9.33;5.50;;;43.90;1.00;;;;;;5025618;28;20470;-66
2023/09/11 11:18:06;;;;;;;7.80;5.90;;;43.30;1.00;;;;;;5015656;28;20466;-66
2023/09/11 11:20:34;;;;;;;6.90;5.33;;;42.80;1.00;;;;;;5026596;28;20465;-66
2023/09/11 11:23:09;;;;;;;9.23;4.93;;;42.30;1.00;;;;;;5027303;28;20467;-67
2023/09/11 11:25:37;;;;;;;6.73;5.83;;;41.90;1.00;;;;;;5028968;28;20513;-67
2023/09/11 11:28:08;;;;;;;8.03;5.97;;;41.50;1.00;;;;;;5030210;28;20463;-67
2023/09/11 11:30:36;;;;;;;8.00;5.33;;;41.10;1.00;;;;;;5029631;28;20482;-67
2023/09/11 11:33:05;;;;;;;9.07;5.50;;;40.80;1.00;;;;;;5024676;28;20580;-67
2023/09/11 11:35:32;;;;;;;9.03;5.23;;;40.50;1.00;;;;;;5022401;28;20862;-67
2023/09/11 11:38:00;;;;;;;9.13;6.10;;;40.20;1.00;;;;;;5023523;28;20463;-66
2023/09/11 11:40:27;;;;;;;10.20;5.60;;;39.80;1.00;;;;;;5023467;28;20478;-66
2023/09/11 11:42:56;;;;;;;7.00;5.70;;;39.40;1.00;;;;;;5022140;28;21061;-65
2023/09/11 11:45:23;;;;;;;9.27;5.83;;;39.10;1.00;;;;;;5024181;28;20494;-66
2023/09/11 11:47:50;;;;;;;7.03;5.70;;;38.70;1.00;;;;;;5026169;28;20991;-66
2023/09/11 11:50:18;;;;;;;6.77;6.07;;;38.30;1.00;;;;;;5025613;28;20513;-65
2023/09/11 11:52:46;;;;;;;8.03;5.93;;;38.00;1.00;;;;;;5025030;28;20489;-67
2023/09/11 11:55:21;;;;;;;7.30;5.93;;;37.70;1.00;;;;;;5025625;28;21195;-66
2023/09/11 11:57:52;;;;;;;8.63;6.33;;;37.30;1.00;;;;;;5024318;28;20470;-68
2023/09/11 12:00:20;;;;;;;8.03;6.10;;;37.00;1.00;;;;;;5023396;28;20467;-67
2023/09/11 12:02:47;;;;;;;7.17;5.83;;;36.60;1.00;;;;;;5019843;28;20467;-66
2023/09/11 12:05:14;;;;;;;9.20;6.40;;;36.40;1.00;;;;;;5020389;28;21042;-66
2023/09/11 12:07:41;;;;;;;8.03;6.40;;;36.10;1.00;;;;;;5026731;28;20467;-66
2023/09/11 12:10:10;;;;;;;8.60;6.03;;;36.00;1.00;;;;;;5024249;28;21800;-67
2023/09/11 12:12:39;;;;;;;10.57;6.10;;;35.70;1.00;;;;;;5024552;28;20529;-67
2023/09/11 12:15:07;;;;;;;8.20;6.07;;;35.60;1.00;;;;;;5020967;28;20495;-67
2023/09/11 12:17:35;;;;;;;7.60;6.03;;;35.40;1.00;;;;;;5022777;28;20851;-67
2023/09/11 12:20:14;;;;;;;6.97;5.87;;;35.20;1.00;;;;;;5019245;28;20462;-67
2023/09/11 12:22:42;;;;;;;8.83;6.73;;;35.00;1.00;;;;;;5022798;28;20454;-67
2023/09/11 12:25:09;;;;;;;8.03;6.17;;;34.90;1.00;;;;;;5021284;28;20495;-67
2023/09/11 12:27:37;;;;;;;8.00;6.20;;;34.90;1.00;;;;;;5026619;28;20478;-67
2023/09/11 12:30:05;;;;;;;8.43;6.43;;;34.80;1.00;;;;;;5018966;28;20474;-66
2023/09/11 12:32:32;;;;;;;14.53;6.83;;;34.70;1.00;;;;;;5021277;28;20467;-66
2023/09/11 12:35:00;;;;;;;8.83;7.00;;;34.50;1.00;;;;;;5024423;28;20863;-67
2023/09/11 12:37:27;;;;;;;9.10;6.70;;;34.50;1.00;;;;;;5023895;28;20467;-67
2023/09/11 12:39:54;;;;;;;8.40;6.70;;;34.40;1.00;;;;;;5026731;28;20475;-67
2023/09/11 12:42:21;;;;;;;9.70;6.20;;;34.30;1.00;;;;;;5024661;28;20459;-66
2023/09/11 12:44:48;;;;;;;6.80;5.93;;;34.10;1.00;;;;;;5023876;28;20482;-67
2023/09/11 12:47:15;;;;;;;10.90;6.93;;;34.10;1.00;;;;;;5022493;28;20474;-68